Time;durP1;ratioP1;P1;durP2;ratioP2;P2;SDS_P1;SDS_P2;PMS_P1;PMS_P2;Temp;Humidity;BMP_temperature;BMP_pressure;BME280_temperature;BME280_humidity;BME280_pressure;Samples;Min_cycle;Max_cycle;Signal;HPM_P1;HPM_P2
2023/05/12 00:00:54;;;;;;;12.40;7.60;;;;;;;;;;6224295;28;20054;-59
2023/05/12 00:03:55;;;;;;;46.90;16.23;;;;;;;;;;6227476;28;20134;-60
2023/05/12 00:06:56;;;;;;;74.57;26.27;;;;;;;;;;6230644;28;20033;-57
2023/05/12 00:09:56;;;;;;;16.33;8.93;;;;;;;;;;6228905;28;20060;-60
2023/05/12 00:12:57;;;;;;;16.23;8.63;;;;;;;;;;6228668;28;20052;-61
2023/05/12 00:15:57;;;;;;;16.52;8.48;;;;;;;;;;6222736;28;20041;-61
2023/05/12 00:18:58;;;;;;;20.65;8.55;;;;;;;;;;6220625;28;20052;-57
2023/05/12 00:21:59;;;;;;;17.42;7.05;;;;;;;;;;6223325;28;20703;-60
2023/05/12 00:24:59;;;;;;;15.43;7.85;;;;;;;;;;6226756;28;20549;-62
2023/05/12 00:28:00;;;;;;;11.45;6.55;;;;;;;;;;6224988;28;20037;-60
2023/05/12 00:31:02;;;;;;;19.60;7.88;;;;;;;;;;6227451;28;21169;-61
2023/05/12 00:34:03;;;;;;;;;;;;;;;;;;6224507;28;20044;-61
2023/05/12 00:37:04;;;;;;;17.25;7.03;;;;;;;;;;6223062;28;20284;-62
2023/05/12 00:40:05;;;;;;;17.13;7.85;;;;;;;;;;6222554;28;20042;-59
2023/05/12 00:43:07;;;;;;;14.23;7.35;;;;;;;;;;6225141;28;20055;-61
2023/05/12 00:46:08;;;;;;;16.90;7.60;;;;;;;;;;6221936;28;20050;-60
2023/05/12 00:49:08;;;;;;;15.05;7.88;;;;;;;;;;6220781;28;20046;-60
2023/05/12 00:52:09;;;;;;;15.88;7.63;;;;;;;;;;6223455;28;20443;-61
2023/05/12 00:55:10;;;;;;;16.77;8.05;;;;;;;;;;6224125;28;20044;-61
2023/05/12 00:58:11;;;;;;;17.48;8.20;;;;;;;;;;6225180;28;20041;-60
2023/05/12 01:01:12;;;;;;;15.82;7.78;;;;;;;;;;6223634;28;20164;-61
2023/05/12 01:04:12;;;;;;;15.50;8.43;;;;;;;;;;6220380;28;20044;-60
2023/05/12 01:07:24;;;;;;;16.95;8.23;;;;;;;;;;6223796;28;20044;-60
2023/05/12 01:10:25;;;;;;;19.27;10.10;;;;;;;;;;6224307;28;20057;-61
2023/05/12 01:13:26;;;;;;;13.15;8.70;;;;;;;;;;6222366;28;20072;-58
2023/05/12 01:16:32;;;;;;;15.98;7.95;;;;;;;;;;6227119;28;20145;-60
2023/05/12 01:19:49;;;;;;;18.27;7.97;;;;;;;;;;6221344;28;20049;-61
2023/05/12 01:22:51;;;;;;;15.75;8.05;;;;;;;;;;6223488;28;20382;-58
2023/05/12 01:25:53;;;;;;;;;;;;;;;;;;6220029;28;20053;-60
2023/05/12 01:28:55;;;;;;;14.77;8.15;;;;;;;;;;6221573;28;20632;-60
2023/05/12 01:31:56;;;;;;;19.33;8.25;;;;;;;;;;6222314;28;20037;-60
2023/05/12 01:34:56;;;;;;;14.40;8.30;;;;;;;;;;6222717;28;20124;-60
2023/05/12 01:37:57;;;;;;;15.68;8.48;;;;;;;;;;6222668;28;20034;-61
2023/05/12 01:40:58;;;;;;;20.98;9.18;;;;;;;;;;6224144;28;20412;-60
2023/05/12 01:43:58;;;;;;;19.80;9.13;;;;;;;;;;6221519;28;20434;-59
2023/05/12 01:47:00;;;;;;;20.60;9.50;;;;;;;;;;6220806;28;20131;-59
2023/05/12 01:50:01;;;;;;;17.05;8.05;;;;;;;;;;6222574;28;20042;-60
2023/05/12 01:53:01;;;;;;;17.95;8.48;;;;;;;;;;6222343;28;20531;-60
2023/05/12 01:56:02;;;;;;;16.05;8.20;;;;;;;;;;6232991;28;20152;-60
2023/05/12 01:59:02;;;;;;;17.23;8.73;;;;;;;;;;6232213;28;20050;-59
2023/05/12 02:02:03;;;;;;;17.10;8.93;;;;;;;;;;6223716;28;20157;-60
2023/05/12 02:05:04;;;;;;;17.05;8.70;;;;;;;;;;6220540;28;20038;-60
2023/05/12 02:08:06;;;;;;;14.97;8.70;;;;;;;;;;6222069;28;20049;-60
2023/05/12 02:11:07;;;;;;;16.43;8.53;;;;;;;;;;6221112;28;20045;-59
2023/05/12 02:14:08;;;;;;;15.68;8.65;;;;;;;;;;6216465;28;20056;-60
2023/05/12 02:17:08;;;;;;;16.33;8.75;;;;;;;;;;6219947;28;20041;-60
2023/05/12 02:20:11;;;;;;;19.30;8.05;;;;;;;;;;6220201;28;20136;-60
2023/05/12 02:23:11;;;;;;;;;;;;;;;;;;6220019;28;20046;-60
2023/05/12 02:26:12;;;;;;;15.88;7.72;;;;;;;;;;6220979;28;19929;-60
2023/05/12 02:29:12;;;;;;;15.18;8.43;;;;;;;;;;6220965;28;20576;-59
2023/05/12 02:32:13;;;;;;;16.48;8.23;;;;;;;;;;6220942;28;20055;-60
2023/05/12 02:35:13;;;;;;;14.88;8.18;;;;;;;;;;6219703;28;20053;-60
2023/05/12 02:38:14;;;;;;;16.70;9.07;;;;;;;;;;6220000;28;20519;-59
2023/05/12 02:41:15;;;;;;;17.10;8.90;;;;;;;;;;6220609;28;20056;-60
2023/05/12 02:44:16;;;;;;;16.48;8.95;;;;;;;;;;6219561;28;20488;-59
2023/05/12 02:47:17;;;;;;;17.10;8.93;;;;;;;;;;6220163;28;20061;-61
2023/05/12 02:50:18;;;;;;;16.08;8.70;;;;;;;;;;6218570;28;20096;-60
2023/05/12 02:53:18;;;;;;;16.33;9.10;;;;;;;;;;6220751;28;20054;-60
2023/05/12 02:56:19;;;;;;;16.65;9.38;;;;;;;;;;6217890;28;20037;-60
2023/05/12 02:59:20;;;;;;;16.42;9.23;;;;;;;;;;6219080;28;20901;-59
2023/05/12 03:02:21;;;;;;;18.63;9.57;;;;;;;;;;6221837;28;20099;-58
2023/05/12 03:05:21;;;;;;;17.17;8.70;;;;;;;;;;6218807;28;20038;-61
2023/05/12 03:08:22;;;;;;;15.15;8.65;;;;;;;;;;6221437;28;20045;-60
2023/05/12 03:11:22;;;;;;;17.88;9.02;;;;;;;;;;6224048;28;20038;-61
2023/05/12 03:14:25;;;;;;;14.55;8.50;;;;;;;;;;6224865;28;20053;-62
2023/05/12 03:17:25;;;;;;;16.92;8.90;;;;;;;;;;6224687;28;20454;-61
2023/05/12 03:20:26;;;;;;;18.95;9.70;;;;;;;;;;6225149;28;20089;-61
2023/05/12 03:23:26;;;;;;;17.95;8.57;;;;;;;;;;6221644;28;20493;-60
2023/05/12 03:26:27;;;;;;;13.82;8.57;;;;;;;;;;6223906;28;20107;-61
2023/05/12 03:29:27;;;;;;;17.10;9.13;;;;;;;;;;6224847;28;20424;-60
2023/05/12 03:32:28;;;;;;;17.58;9.20;;;;;;;;;;6223403;28;20080;-61
2023/05/12 03:35:29;;;;;;;21.05;9.80;;;;;;;;;;6224410;28;20054;-61
2023/05/12 03:38:30;;;;;;;22.23;9.35;;;;;;;;;;6225483;28;20053;-60
2023/05/12 03:41:30;;;;;;;17.83;9.38;;;;;;;;;;6223581;28;20038;-60
2023/05/12 03:44:31;;;;;;;19.52;9.15;;;;;;;;;;6222689;28;20097;-60
2023/05/12 03:47:33;;;;;;;18.58;9.10;;;;;;;;;;6223990;28;20040;-58
2023/05/12 03:50:34;;;;;;;18.83;9.68;;;;;;;;;;6225084;28;20038;-62
2023/05/12 03:53:34;;;;;;;15.95;9.05;;;;;;;;;;6225468;28;20045;-60
2023/05/12 03:56:35;;;;;;;20.73;10.20;;;;;;;;;;6224628;28;20049;-61
2023/05/12 03:59:35;;;;;;;19.05;10.52;;;;;;;;;;6225151;28;20045;-61
2023/05/12 04:02:36;;;;;;;23.45;11.60;;;;;;;;;;6223757;28;20042;-61
2023/05/12 04:05:38;;;;;;;21.73;11.30;;;;;;;;;;6222551;28;20046;-61
2023/05/12 04:08:39;;;;;;;24.25;11.30;;;;;;;;;;6226745;28;20052;-61
2023/05/12 04:11:39;;;;;;;21.25;10.40;;;;;;;;;;6223061;28;20481;-61
2023/05/12 04:14:40;;;;;;;22.08;10.45;;;;;;;;;;6223299;28;20132;-62
2023/05/12 04:17:41;;;;;;;23.13;10.10;;;;;;;;;;6224917;28;20056;-62
2023/05/12 04:20:41;;;;;;;21.52;9.98;;;;;;;;;;6224801;28;20057;-61
2023/05/12 04:23:42;;;;;;;23.15;9.88;;;;;;;;;;6220214;28;20068;-61
2023/05/12 04:26:43;;;;;;;22.02;9.60;;;;;;;;;;6221602;28;20062;-60
2023/05/12 04:29:43;;;;;;;23.13;9.50;;;;;;;;;;6221912;28;21398;-61
2023/05/12 04:32:44;;;;;;;19.63;10.00;;;;;;;;;;6223095;28;20488;-59
2023/05/12 04:35:44;;;;;;;19.90;9.30;;;;;;;;;;6222736;28;20037;-60
2023/05/12 04:38:45;;;;;;;22.00;9.95;;;;;;;;;;6224986;28;20481;-62
2023/05/12 04:41:45;;;;;;;18.25;8.40;;;;;;;;;;6224528;28;20073;-62
2023/05/12 04:44:46;;;;;;;18.40;8.80;;;;;;;;;;6223100;28;20546;-61
2023/05/12 04:47:47;;;;;;;23.15;10.05;;;;;;;;;;6223364;28;20111;-59
2023/05/12 04:50:48;;;;;;;20.42;9.05;;;;;;;;;;6222914;28;20600;-61
2023/05/12 04:53:49;;;;;;;28.58;9.35;;;;;;;;;;6222706;28;20172;-63
2023/05/12 04:56:50;;;;;;;18.48;8.98;;;;;;;;;;6221059;28;20073;-61
2023/05/12 04:59:50;;;;;;;19.58;9.07;;;;;;;;;;6222083;28;20042;-59
2023/05/12 05:02:51;;;;;;;20.67;8.73;;;;;;;;;;6220904;28;20038;-60
2023/05/12 05:05:52;;;;;;;23.40;8.52;;;;;;;;;;6219567;28;20045;-59
2023/05/12 05:08:54;;;;;;;20.33;9.93;;;;;;;;;;6220960;28;20065;-58
2023/05/12 05:11:55;;;;;;;19.73;8.98;;;;;;;;;;6220227;28;20133;-58
2023/05/12 05:14:55;;;;;;;20.75;9.63;;;;;;;;;;6219052;28;20468;-60
2023/05/12 05:17:56;;;;;;;17.17;8.23;;;;;;;;;;6221357;28;20587;-59
2023/05/12 05:20:57;;;;;;;18.40;9.00;;;;;;;;;;6221104;28;20168;-58
2023/05/12 05:23:57;;;;;;;16.75;7.93;;;;;;;;;;6220301;28;20493;-60
2023/05/12 05:26:58;;;;;;;28.70;10.27;;;;;;;;;;6216761;28;20133;-60
2023/05/12 05:29:58;;;;;;;17.67;7.93;;;;;;;;;;6224115;28;20050;-58
2023/05/12 05:32:59;;;;;;;27.60;9.95;;;;;;;;;;6219277;28;20049;-59
2023/05/12 05:36:00;;;;;;;22.63;8.48;;;;;;;;;;6219470;28;20038;-56
2023/05/12 05:39:01;;;;;;;18.17;8.30;;;;;;;;;;6222860;28;20037;-60
2023/05/12 05:42:01;;;;;;;16.08;8.40;;;;;;;;;;6218615;28;20180;-59
2023/05/12 05:45:02;;;;;;;17.75;8.60;;;;;;;;;;6219726;28;20069;-61
2023/05/12 05:48:03;;;;;;;16.17;8.63;;;;;;;;;;6220500;28;20487;-59
2023/05/12 05:51:05;;;;;;;17.73;7.97;;;;;;;;;;6222330;28;20095;-60
2023/05/12 05:54:05;;;;;;;18.25;9.50;;;;;;;;;;6216423;28;20463;-59
2023/05/12 05:57:06;;;;;;;22.52;9.55;;;;;;;;;;6220041;28;20045;-60
2023/05/12 06:00:08;;;;;;;17.77;8.82;;;;;;;;;;6218917;28;20042;-60
2023/05/12 06:03:09;;;;;;;16.25;7.55;;;;;;;;;;6218322;28;20042;-57
2023/05/12 06:06:10;;;;;;;20.85;9.02;;;;;;;;;;6219508;28;20104;-60
2023/05/12 06:09:11;;;;;;;13.55;7.20;;;;;;;;;;6219411;28;20053;-60
2023/05/12 06:12:11;;;;;;;17.77;7.22;;;;;;;;;;6218697;28;20041;-60
2023/05/12 06:15:12;;;;;;;17.70;8.48;;;;;;;;;;6218004;28;20415;-60
2023/05/12 06:18:12;;;;;;;18.52;8.40;;;;;;;;;;6219156;28;20103;-59
2023/05/12 06:21:13;;;;;;;13.88;6.70;;;;;;;;;;6221720;28;20045;-59
2023/05/12 06:24:14;;;;;;;13.35;7.13;;;;;;;;;;6216966;28;20041;-60
2023/05/12 06:27:14;;;;;;;13.93;6.88;;;;;;;;;;6221860;28;20042;-61
2023/05/12 06:30:15;;;;;;;17.48;7.10;;;;;;;;;;6218639;28;21448;-61
2023/05/12 06:33:15;;;;;;;10.48;6.47;;;;;;;;;;6217450;28;20113;-60
2023/05/12 06:36:16;;;;;;;15.07;6.80;;;;;;;;;;6217954;28;20041;-60
2023/05/12 06:39:17;;;;;;;13.00;5.65;;;;;;;;;;6217937;28;20516;-60
2023/05/12 06:42:17;;;;;;;17.42;6.30;;;;;;;;;;6217153;28;20041;-60
2023/05/12 06:45:18;;;;;;;14.70;5.78;;;;;;;;;;6216921;28;20042;-59
2023/05/12 06:48:18;;;;;;;10.82;5.10;;;;;;;;;;6216378;28;20068;-58
2023/05/12 06:51:19;;;;;;;11.02;5.18;;;;;;;;;;6218900;28;20070;-60
2023/05/12 06:54:20;;;;;;;14.75;5.60;;;;;;;;;;6217425;28;20106;-60
2023/05/12 06:57:20;;;;;;;16.88;8.63;;;;;;;;;;6218250;28;20563;-60
2023/05/12 07:00:22;;;;;;;10.15;5.15;;;;;;;;;;6217973;28;20052;-60
2023/05/12 07:03:23;;;;;;;;;;;;;;;;;;6217094;28;20637;-61
2023/05/12 07:06:26;;;;;;;10.55;5.65;;;;;;;;;;6218021;28;20172;-59
2023/05/12 07:09:27;;;;;;;10.48;5.20;;;;;;;;;;6218928;28;20054;-61
2023/05/12 07:12:27;;;;;;;11.05;5.20;;;;;;;;;;6216605;28;20061;-63
2023/05/12 07:15:28;;;;;;;11.43;5.55;;;;;;;;;;6215218;28;20041;-59
2023/05/12 07:18:29;;;;;;;16.17;6.30;;;;;;;;;;6221745;28;20056;-61
2023/05/12 07:21:30;;;;;;;11.02;5.10;;;;;;;;;;6222224;28;20119;-60
2023/05/12 07:24:30;;;;;;;11.75;5.93;;;;;;;;;;6229475;28;20057;-60
2023/05/12 07:27:31;;;;;;;14.55;5.35;;;;;;;;;;6229157;28;20095;-61
2023/05/12 07:30:32;;;;;;;9.93;5.38;;;;;;;;;;6229576;28;20049;-61
2023/05/12 07:33:35;;;;;;;55.95;22.98;;;;;;;;;;6227261;28;20042;-59
2023/05/12 07:36:36;;;;;;;11.88;5.32;;;;;;;;;;6227257;28;20104;-61
2023/05/12 07:39:37;;;;;;;10.48;4.55;;;;;;;;;;6226309;28;20050;-61
2023/05/12 07:42:37;;;;;;;11.53;4.57;;;;;;;;;;6224921;28;20449;-62
2023/05/12 07:45:38;;;;;;;10.85;4.57;;;;;;;;;;6227764;28;20045;-60
2023/05/12 07:48:39;;;;;;;14.63;6.95;;;;;;;;;;6229530;28;20041;-61
2023/05/12 07:51:39;;;;;;;10.07;5.07;;;;;;;;;;6218655;28;20069;-61
2023/05/12 07:54:40;;;;;;;10.13;4.43;;;;;;;;;;6219619;28;20088;-61
2023/05/12 07:57:40;;;;;;;10.57;4.93;;;;;;;;;;6221499;28;20041;-61
2023/05/12 08:00:41;;;;;;;10.30;4.25;;;;;;;;;;6220822;28;20049;-61
2023/05/12 08:03:42;;;;;;;9.05;4.90;;;;;;;;;;6220735;28;20042;-61
2023/05/12 08:06:42;;;;;;;9.18;4.60;;;;;;;;;;6221356;28;21040;-60
2023/05/12 08:09:43;;;;;;;8.80;4.27;;;;;;;;;;6221058;28;20045;-61
2023/05/12 08:12:44;;;;;;;10.23;4.50;;;;;;;;;;6219520;28;20093;-60
2023/05/12 08:15:46;;;;;;;8.18;4.68;;;;;;;;;;6221456;28;20413;-61
2023/05/12 08:18:47;;;;;;;10.68;5.07;;;;;;;;;;6219535;28;20045;-60
2023/05/12 08:21:48;;;;;;;8.48;4.43;;;;;;;;;;6222694;28;20561;-61
2023/05/12 08:24:48;;;;;;;15.75;4.55;;;;;;;;;;6222133;28;20046;-61
2023/05/12 08:27:49;;;;;;;8.80;4.07;;;;;;;;;;6220273;28;20773;-60
2023/05/12 08:30:50;;;;;;;8.20;4.03;;;;;;;;;;6220531;28;20057;-61
2023/05/12 08:33:50;;;;;;;8.43;4.43;;;;;;;;;;6220602;28;20493;-61
2023/05/12 08:36:52;;;;;;;7.97;3.97;;;;;;;;;;6222462;28;20050;-60
2023/05/12 08:39:52;;;;;;;8.43;4.68;;;;;;;;;;6221226;28;20042;-61
2023/05/12 08:43:03;;;;;;;9.38;3.70;;;;;;;;;;6221508;28;20041;-60
2023/05/12 08:46:05;;;;;;;11.18;4.35;;;;;;;;;;6222060;28;20444;-61
2023/05/12 08:49:08;;;;;;;8.80;4.90;;;;;;;;;;6218473;28;20076;-61
2023/05/12 08:52:11;;;;;;;9.80;4.70;;;;;;;;;;6221906;28;20128;-59
2023/05/12 08:55:13;;;;;;;6.68;4.05;;;;;;;;;;6220314;28;20049;-61
2023/05/12 08:58:14;;;;;;;;;;;;;;;;;;6221306;28;20045;-66
2023/05/12 09:01:15;;;;;;;13.35;3.30;;;;;;;;;;6221138;28;19925;-61
2023/05/12 09:04:16;;;;;;;7.32;3.88;;;;;;;;;;6221443;28;20041;-59
2023/05/12 09:07:18;;;;;;;7.47;4.23;;;;;;;;;;6220082;28;20104;-62
2023/05/12 09:10:21;;;;;;;7.65;4.00;;;;;;;;;;6222695;28;20201;-61
2023/05/12 09:13:46;;;;;;;5.75;4.00;;;;;;;;;;6217759;28;20120;-61
2023/05/12 09:16:50;;;;;;;7.80;3.83;;;;;;;;;;6212202;28;20033;-61
2023/05/12 09:19:50;;;;;;;6.75;3.90;;;;;;;;;;6220614;28;20049;-62
2023/05/12 09:22:52;;;;;;;9.10;3.90;;;;;;;;;;6221688;28;20059;-60
2023/05/12 09:26:02;;;;;;;;;;;;;;;;;;6217736;28;20050;-60
2023/05/12 09:29:05;;;;;;;7.65;3.80;;;;;;;;;;6220878;28;19921;-60
2023/05/12 09:32:06;;;;;;;11.23;3.83;;;;;;;;;;6220166;28;20038;-61
2023/05/12 09:35:10;;;;;;;7.33;3.50;;;;;;;;;;6218117;28;20545;-61
2023/05/12 09:38:12;;;;;;;6.47;3.55;;;;;;;;;;6218352;28;20042;-61
2023/05/12 09:41:21;;;;;;;7.00;3.90;;;;;;;;;;6223297;28;20120;-62
2023/05/12 09:44:23;;;;;;;9.73;3.50;;;;;;;;;;6219660;28;20074;-61
2023/05/12 09:47:27;;;;;;;7.97;3.53;;;;;;;;;;6219157;28;20114;-60
2023/05/12 09:50:28;;;;;;;9.27;3.08;;;;;;;;;;6220800;28;20046;-60
2023/05/12 09:53:30;;;;;;;6.95;3.95;;;;;;;;;;6220293;28;20038;-61
2023/05/12 09:56:31;;;;;;;7.25;3.17;;;;;;;;;;6217782;28;20042;-61
2023/05/12 09:59:34;;;;;;;7.00;3.90;;;;;;;;;;6219155;28;20048;-60
2023/05/12 10:02:38;;;;;;;9.15;4.63;;;;;;;;;;6217634;28;20087;-60
2023/05/12 10:05:47;;;;;;;8.73;4.13;;;;;;;;;;6219377;28;20144;-59
2023/05/12 10:08:55;;;;;;;7.38;3.40;;;;;;;;;;6212088;28;20041;-60
2023/05/12 10:11:57;;;;;;;6.95;3.65;;;;;;;;;;6226575;28;20046;-60
2023/05/12 10:14:59;;;;;;;6.97;3.00;;;;;;;;;;6231000;28;20069;-60
2023/05/12 10:18:00;;;;;;;7.35;3.40;;;;;;;;;;6218614;28;20076;-60
2023/05/12 10:21:02;;;;;;;9.33;3.33;;;;;;;;;;6220574;28;20042;-60
2023/05/12 10:24:03;;;;;;;10.15;3.45;;;;;;;;;;6218883;28;20038;-57
2023/05/12 10:27:04;;;;;;;11.53;3.33;;;;;;;;;;6217981;28;20044;-59
2023/05/12 10:30:06;;;;;;;8.55;3.10;;;;;;;;;;6220314;28;20405;-60
2023/05/12 10:33:08;;;;;;;;;;;;;;;;;;6220373;28;20096;-59
2023/05/12 10:36:18;;;;;;;14.77;3.78;;;;;;;;;;6216499;28;19921;-58
2023/05/12 10:39:19;;;;;;;6.53;3.22;;;;;;;;;;6216586;28;20132;-60
2023/05/12 10:42:24;;;;;;;9.15;3.17;;;;;;;;;;6219751;28;20041;-59
2023/05/12 10:45:25;;;;;;;11.73;3.78;;;;;;;;;;6215170;28;20049;-59
2023/05/12 10:48:25;;;;;;;12.60;3.80;;;;;;;;;;6216614;28;20096;-59
2023/05/12 10:51:31;;;;;;;16.07;4.00;;;;;;;;;;6220196;28;20042;-60
2023/05/12 10:54:43;;;;;;;9.50;3.63;;;;;;;;;;6221509;28;20050;-57
2023/05/12 10:57:50;;;;;;;13.25;3.70;;;;;;;;;;6216127;28;20076;-59
2023/05/12 11:00:53;;;;;;;21.67;7.72;;;;;;;;;;6216674;28;20045;-60
2023/05/12 11:03:57;;;;;;;10.50;5.07;;;;;;;;;;6217521;28;20084;-61
2023/05/12 11:06:59;;;;;;;11.75;4.00;;;;;;;;;;6217168;28;20080;-59
2023/05/12 11:10:02;;;;;;;11.02;3.70;;;;;;;;;;6215231;28;20046;-59
2023/05/12 11:13:03;;;;;;;8.40;3.63;;;;;;;;;;6216224;28;20044;-59
2023/05/12 11:16:04;;;;;;;7.17;3.20;;;;;;;;;;6217988;28;20038;-60
2023/05/12 11:19:05;;;;;;;5.57;3.50;;;;;;;;;;6217498;28;20045;-60
2023/05/12 11:22:08;;;;;;;8.43;3.73;;;;;;;;;;6220837;28;20049;-60
2023/05/12 11:25:10;;;;;;;9.90;3.35;;;;;;;;;;6219181;28;20049;-59
2023/05/12 11:28:11;;;;;;;;;;;;;;;;;;6221699;28;20077;-59
2023/05/12 11:31:18;;;;;;;10.45;3.45;;;;;;;;;;6216979;28;20346;-59
2023/05/12 11:34:23;;;;;;;10.63;3.50;;;;;;;;;;6222575;28;20049;-59
2023/05/12 11:37:24;;;;;;;7.68;3.80;;;;;;;;;;6221205;28;20046;-58
2023/05/12 11:40:24;;;;;;;7.30;3.97;;;;;;;;;;6219322;28;20426;-59
2023/05/12 11:43:27;;;;;;;10.50;3.77;;;;;;;;;;6221591;28;20404;-58
2023/05/12 11:46:28;;;;;;;7.63;3.70;;;;;;;;;;6221582;28;20050;-59
2023/05/12 11:49:30;;;;;;;9.23;3.92;;;;;;;;;;6220811;28;21218;-59
2023/05/12 11:52:31;;;;;;;9.20;3.70;;;;;;;;;;6219817;28;20568;-60
2023/05/12 11:55:32;;;;;;;8.53;3.40;;;;;;;;;;6211004;28;20072;-60
2023/05/12 11:58:33;;;;;;;7.97;3.80;;;;;;;;;;6213005;28;20140;-59
2023/05/12 12:01:45;;;;;;;14.27;3.70;;;;;;;;;;6213938;28;20093;-60
2023/05/12 12:04:45;;;;;;;6.68;3.67;;;;;;;;;;6209934;28;20168;-64
2023/05/12 12:07:46;;;;;;;15.67;5.07;;;;;;;;;;6216192;28;20145;-63
2023/05/12 12:10:47;;;;;;;6.97;3.73;;;;;;;;;;6217249;28;20041;-59
2023/05/12 12:13:55;;;;;;;10.60;4.03;;;;;;;;;;6217374;28;20040;-63
2023/05/12 12:16:56;;;;;;;8.23;3.85;;;;;;;;;;6218577;28;20038;-56
2023/05/12 12:19:57;;;;;;;8.97;4.47;;;;;;;;;;6219827;28;20046;-55
2023/05/12 12:22:58;;;;;;;12.63;3.80;;;;;;;;;;6213923;28;20050;-61
2023/05/12 12:25:59;;;;;;;6.73;3.93;;;;;;;;;;6218371;28;20171;-59
2023/05/12 12:28:59;;;;;;;9.50;4.23;;;;;;;;;;6220048;28;20046;-58
2023/05/12 12:32:00;;;;;;;8.37;3.77;;;;;;;;;;6220905;28;20083;-64
2023/05/12 12:35:03;;;;;;;8.87;4.33;;;;;;;;;;6215641;28;20049;-65
2023/05/12 12:38:03;;;;;;;7.57;3.97;;;;;;;;;;6215921;28;20454;-61
2023/05/12 12:41:05;;;;;;;10.60;3.77;;;;;;;;;;6215945;28;20052;-66
2023/05/12 12:44:06;;;;;;;6.03;3.85;;;;;;;;;;6213052;28;20052;-58
2023/05/12 12:47:07;;;;;;;7.90;3.73;;;;;;;;;;6211543;28;20049;-62
2023/05/12 12:50:09;;;;;;;10.87;4.03;;;;;;;;;;6213888;28;20116;-56
2023/05/12 12:53:09;;;;;;;6.35;3.78;;;;;;;;;;6210576;28;20136;-56
2023/05/12 12:56:10;;;;;;;7.97;3.70;;;;;;;;;;6214193;28;20156;-58
2023/05/12 12:59:12;;;;;;;12.40;3.87;;;;;;;;;;6215741;28;20064;-53
2023/05/12 13:02:12;;;;;;;7.85;3.58;;;;;;;;;;6216439;28;20091;-66
2023/05/12 13:05:13;;;;;;;9.23;3.83;;;;;;;;;;6216572;28;20053;-57
2023/05/12 13:08:15;;;;;;;8.07;3.80;;;;;;;;;;6218939;28;20052;-65
2023/05/12 13:11:15;;;;;;;9.50;3.78;;;;;;;;;;6213266;28;20053;-63
2023/05/12 13:14:16;;;;;;;12.33;4.60;;;;;;;;;;6211873;28;20053;-64
2023/05/12 13:17:16;;;;;;;7.70;3.50;;;;;;;;;;6216924;28;20042;-63
2023/05/12 13:20:17;;;;;;;6.80;3.90;;;;;;;;;;6214727;28;20140;-63
2023/05/12 13:23:19;;;;;;;8.37;3.90;;;;;;;;;;6214172;28;20053;-58
2023/05/12 13:26:20;;;;;;;6.03;3.90;;;;;;;;;;6210967;28;20059;-59
2023/05/12 13:29:20;;;;;;;5.77;3.40;;;;;;;;;;6215909;28;20065;-60
2023/05/12 13:32:21;;;;;;;6.60;3.73;;;;;;;;;;6213924;28;20424;-61
2023/05/12 13:35:22;;;;;;;7.87;3.93;;;;;;;;;;6212031;28;20777;-59
2023/05/12 13:38:23;;;;;;;7.87;3.73;;;;;;;;;;6217922;28;20049;-62
2023/05/12 13:41:23;;;;;;;7.30;3.87;;;;;;;;;;6211557;28;20053;-59
2023/05/12 13:44:24;;;;;;;9.47;4.60;;;;;;;;;;6213990;28;20148;-58
2023/05/12 13:47:24;;;;;;;9.83;4.23;;;;;;;;;;6217113;28;20067;-60
2023/05/12 13:50:25;;;;;;;8.37;4.60;;;;;;;;;;6214025;28;20045;-58
2023/05/12 13:53:25;;;;;;;13.60;4.60;;;;;;;;;;6212565;28;20037;-59
2023/05/12 13:56:26;;;;;;;9.00;4.70;;;;;;;;;;6214605;28;20046;-60
2023/05/12 13:59:27;;;;;;;12.10;4.53;;;;;;;;;;6213971;28;20037;-61
2023/05/12 14:02:27;;;;;;;8.53;3.83;;;;;;;;;;6214765;28;20401;-61
2023/05/12 14:05:28;;;;;;;10.23;3.87;;;;;;;;;;6210852;28;20060;-61
2023/05/12 14:08:29;;;;;;;11.07;4.10;;;;;;;;;;6212337;28;20686;-60
2023/05/12 14:11:29;;;;;;;7.70;3.80;;;;;;;;;;6213262;28;20045;-60
2023/05/12 14:14:30;;;;;;;12.13;4.10;;;;;;;;;;6209991;28;20044;-58
2023/05/12 14:17:30;;;;;;;9.97;4.03;;;;;;;;;;6217149;28;20042;-59
2023/05/12 14:20:31;;;;;;;8.70;3.80;;;;;;;;;;6210839;28;20080;-57
2023/05/12 14:23:32;;;;;;;7.67;4.00;;;;;;;;;;6212709;28;20045;-59
2023/05/12 14:26:33;;;;;;;9.50;4.33;;;;;;;;;;6215575;28;21371;-58
2023/05/12 14:29:33;;;;;;;7.97;3.90;;;;;;;;;;6216471;28;20042;-61
2023/05/12 14:32:34;;;;;;;8.00;3.87;;;;;;;;;;6214018;28;20077;-60
2023/05/12 14:35:34;;;;;;;12.27;5.27;;;;;;;;;;6216455;28;20065;-60
2023/05/12 14:38:35;;;;;;;7.27;5.10;;;;;;;;;;6214973;28;20144;-60
2023/05/12 14:41:36;;;;;;;8.47;3.97;;;;;;;;;;6213462;28;20053;-61
2023/05/12 14:44:36;;;;;;;9.63;3.83;;;;;;;;;;6212753;28;20049;-60
2023/05/12 14:47:37;;;;;;;9.93;4.20;;;;;;;;;;6220672;28;20042;-60
2023/05/12 14:50:38;;;;;;;6.27;3.70;;;;;;;;;;6209830;28;20061;-59
2023/05/12 14:53:38;;;;;;;7.97;3.80;;;;;;;;;;6209861;28;20064;-59
2023/05/12 14:56:41;;;;;;;9.50;4.17;;;;;;;;;;6217887;28;20053;-56
2023/05/12 14:59:41;;;;;;;12.88;4.15;;;;;;;;;;6213618;28;20054;-57
2023/05/12 15:02:43;;;;;;;9.77;3.97;;;;;;;;;;6213814;28;20555;-59
2023/05/12 15:05:44;;;;;;;10.55;4.07;;;;;;;;;;6213006;28;20068;-59
2023/05/12 15:08:45;;;;;;;8.00;3.80;;;;;;;;;;6217577;28;20053;-61
2023/05/12 15:11:45;;;;;;;11.17;4.40;;;;;;;;;;6221204;28;20116;-60
2023/05/12 15:14:46;;;;;;;9.27;3.80;;;;;;;;;;6217733;28;20049;-60
2023/05/12 15:17:47;;;;;;;7.97;3.53;;;;;;;;;;6221759;28;20050;-55
2023/05/12 15:20:47;;;;;;;12.37;5.17;;;;;;;;;;6218224;28;20081;-57
2023/05/12 15:23:48;;;;;;;11.40;5.07;;;;;;;;;;6215569;28;20053;-58
2023/05/12 15:26:49;;;;;;;7.90;3.60;;;;;;;;;;6217894;28;20050;-56
2023/05/12 15:29:49;;;;;;;6.47;3.57;;;;;;;;;;6216893;28;20470;-61
2023/05/12 15:32:50;;;;;;;10.10;3.77;;;;;;;;;;6218727;28;20489;-59
2023/05/12 15:35:50;;;;;;;8.47;3.80;;;;;;;;;;6221173;28;20714;-59
2023/05/12 15:38:51;;;;;;;11.20;3.90;;;;;;;;;;6220020;28;21023;-61
2023/05/12 15:41:52;;;;;;;10.60;4.03;;;;;;;;;;6221496;28;20602;-58
2023/05/12 15:44:52;;;;;;;9.17;5.20;;;;;;;;;;6213741;28;20076;-59
2023/05/12 15:47:53;;;;;;;9.37;5.00;;;;;;;;;;6218856;28;20042;-55
2023/05/12 15:50:54;;;;;;;11.47;4.63;;;;;;;;;;6223765;28;21326;-60
2023/05/12 15:53:54;;;;;;;9.30;3.47;;;;;;;;;;6209073;28;20365;-61
2023/05/12 15:56:55;;;;;;;13.90;4.77;;;;;;;;;;6225577;28;20092;-61
2023/05/12 15:59:58;;;;;;;9.77;4.97;;;;;;;;;;6221971;28;20049;-59
2023/05/12 16:03:00;;;;;;;10.63;4.70;;;;;;;;;;6217050;28;20375;-58
2023/05/12 16:06:01;;;;;;;24.08;9.15;;;;;;;;;;6217272;28;20037;-57
2023/05/12 16:09:01;;;;;;;6.40;3.97;;;;;;;;;;6216073;28;20426;-61
2023/05/12 16:12:02;;;;;;;12.07;4.20;;;;;;;;;;6222498;28;20045;-56
2023/05/12 16:15:03;;;;;;;7.03;3.43;;;;;;;;;;6215846;28;20108;-60
2023/05/12 16:18:04;;;;;;;10.70;4.30;;;;;;;;;;6215551;28;20558;-59
2023/05/12 16:21:06;;;;;;;9.00;3.80;;;;;;;;;;6214863;28;20306;-56
2023/05/12 16:24:07;;;;;;;27.40;13.23;;;;;;;;;;6210001;28;20054;-61
2023/05/12 16:27:07;;;;;;;11.63;5.72;;;;;;;;;;6213964;28;20103;-54
2023/05/12 16:30:08;;;;;;;16.57;7.03;;;;;;;;;;6212917;28;20049;-57
2023/05/12 16:33:10;;;;;;;10.77;4.60;;;;;;;;;;6210251;28;20103;-57
2023/05/12 16:36:10;;;;;;;8.87;3.93;;;;;;;;;;6213550;28;20451;-60
2023/05/12 16:39:11;;;;;;;8.03;3.77;;;;;;;;;;6215229;28;20058;-60
2023/05/12 16:42:12;;;;;;;8.80;3.87;;;;;;;;;;6221309;28;20044;-58
2023/05/12 16:45:12;;;;;;;6.40;3.60;;;;;;;;;;6212152;28;20046;-54
2023/05/12 16:48:13;;;;;;;6.90;3.70;;;;;;;;;;6213552;28;20042;-56
2023/05/12 16:51:14;;;;;;;7.70;4.05;;;;;;;;;;6212849;28;20045;-60
2023/05/12 16:54:15;;;;;;;13.40;5.03;;;;;;;;;;6210489;28;20054;-58
2023/05/12 16:57:17;;;;;;;10.13;4.83;;;;;;;;;;6219574;28;20037;-58
2023/05/12 17:00:17;;;;;;;9.10;4.20;;;;;;;;;;6213185;28;20075;-60
2023/05/12 17:03:18;;;;;;;9.60;4.00;;;;;;;;;;6212918;28;20042;-58
2023/05/12 17:06:19;;;;;;;9.03;3.73;;;;;;;;;;6214091;28;20056;-57
2023/05/12 17:09:21;;;;;;;12.63;4.90;;;;;;;;;;6213292;28;20124;-58
2023/05/12 17:12:22;;;;;;;9.77;5.07;;;;;;;;;;6213667;28;20061;-57
2023/05/12 17:15:22;;;;;;;16.33;5.07;;;;;;;;;;6210897;28;20614;-60
2023/05/12 17:18:23;;;;;;;11.70;5.97;;;;;;;;;;6217741;28;20064;-59
2023/05/12 17:21:24;;;;;;;9.80;5.40;;;;;;;;;;6212023;28;20231;-59
2023/05/12 17:24:25;;;;;;;12.00;5.07;;;;;;;;;;6214483;28;20053;-57
2023/05/12 17:27:26;;;;;;;9.63;5.40;;;;;;;;;;6214108;28;20104;-56
2023/05/12 17:30:27;;;;;;;23.80;11.63;;;;;;;;;;6212329;28;20108;-59
2023/05/12 17:33:28;;;;;;;10.03;6.67;;;;;;;;;;6213532;28;20061;-59
2023/05/12 17:36:28;;;;;;;11.93;6.30;;;;;;;;;;6216337;28;20042;-59
2023/05/12 17:39:29;;;;;;;9.30;4.93;;;;;;;;;;6214373;28;20053;-58
2023/05/12 17:42:30;;;;;;;15.73;8.60;;;;;;;;;;6219205;28;20416;-56
2023/05/12 17:45:31;;;;;;;65.82;32.50;;;;;;;;;;6215450;28;20443;-57
2023/05/12 17:48:32;;;;;;;17.40;9.27;;;;;;;;;;6217315;28;20069;-58
2023/05/12 17:51:34;;;;;;;21.97;9.43;;;;;;;;;;6212656;28;20488;-58
2023/05/12 17:54:34;;;;;;;32.47;14.15;;;;;;;;;;6213528;28;20064;-60
2023/05/12 17:57:35;;;;;;;28.37;15.37;;;;;;;;;;6220731;28;20483;-58